Time;durP1;ratioP1;P1;durP2;ratioP2;P2;SDS_P1;SDS_P2;PMS_P1;PMS_P2;Temp;Humidity;BMP_temperature;BMP_pressure;BME280_temperature;BME280_humidity;BME280_pressure;Samples;Min_cycle;Max_cycle;Signal;HPM_P1;HPM_P2
2022/03/19 00:02:19;;;;;;;;;;;10.20;61.00;;;;;;5055778;28;19963;-76
2022/03/19 00:04:44;;;;;;;;;;;10.00;61.10;;;;;;5070799;28;19909;-75
2022/03/19 00:07:10;;;;;;;;;;;9.90;61.30;;;;;;5055377;28;19908;-75
2022/03/19 00:09:39;;;;;;;;;;;10.00;61.60;;;;;;5055316;28;20284;-75
2022/03/19 00:12:05;;;;;;;;;;;9.90;61.70;;;;;;5055205;28;19909;-75
2022/03/19 00:14:30;;;;;;;;;;;9.80;61.70;;;;;;5055576;28;19916;-76
2022/03/19 00:16:57;;;;;;;;;;;9.80;61.90;;;;;;5055135;28;19917;-75
2022/03/19 00:19:23;;;;;;;;;;;9.80;61.90;;;;;;5055090;28;20388;-77
2022/03/19 00:21:48;;;;;;;;;;;9.70;62.40;;;;;;5055054;28;19909;-76
2022/03/19 00:24:14;;;;;;;;;;;9.70;62.50;;;;;;5055453;28;20004;-75
2022/03/19 00:26:40;;;;;;;;;;;9.60;62.60;;;;;;5053685;28;20000;-76
2022/03/19 00:29:05;;;;;;;;;;;9.60;62.50;;;;;;5054425;28;19909;-77
2022/03/19 00:31:31;;;;;;;;;;;9.80;62.30;;;;;;5054846;28;20006;-77
2022/03/19 00:33:57;;;;;;;;;;;9.80;61.90;;;;;;5053524;28;20387;-77
2022/03/19 00:36:22;;;;;;;;;;;9.80;62.40;;;;;;5054529;28;20061;-75
2022/03/19 00:38:48;;;;;;;;;;;9.80;62.20;;;;;;5053214;28;19995;-76
2022/03/19 00:41:14;;;;;;;;;;;9.80;61.80;;;;;;5054653;28;19959;-75
2022/03/19 00:43:39;;;;;;;;;;;9.70;61.80;;;;;;5053307;28;20328;-74
2022/03/19 00:46:05;;;;;;;;;;;9.70;61.80;;;;;;5054609;28;19909;-74
2022/03/19 00:48:30;;;;;;;;;;;9.70;61.60;;;;;;5054569;28;19963;-76
2022/03/19 00:50:56;;;;;;;;;;;9.60;61.40;;;;;;5054431;28;20409;-76
2022/03/19 00:53:22;;;;;;;;;;;9.50;61.50;;;;;;5054367;28;19913;-76
2022/03/19 00:55:47;;;;;;;;;;;9.50;61.70;;;;;;5054814;28;19916;-76
2022/03/19 00:58:13;;;;;;;;;;;9.50;61.70;;;;;;5054370;28;19909;-74
2022/03/19 01:00:38;;;;;;;;;;;9.40;61.90;;;;;;5054555;28;19909;-75
2022/03/19 01:03:04;;;;;;;;;;;9.50;61.40;;;;;;5054322;28;20335;-76
2022/03/19 01:05:30;;;;;;;;;;;9.50;61.70;;;;;;5054054;28;19913;-77
2022/03/19 01:07:55;;;;;;;;;;;9.50;61.80;;;;;;5054452;28;19909;-75
2022/03/19 01:10:22;;;;;;;;;;;9.50;61.70;;;;;;5054292;28;19913;-75
2022/03/19 01:12:49;;;;;;;;;;;9.50;61.80;;;;;;5054258;28;19909;-75
2022/03/19 01:15:15;;;;;;;;;;;9.30;62.10;;;;;;5053887;28;20377;-75
2022/03/19 01:17:41;;;;;;;;;;;9.30;62.30;;;;;;5054076;28;19909;-75
2022/03/19 01:20:07;;;;;;;;;;;9.30;62.10;;;;;;5054008;28;19954;-76
2022/03/19 01:22:33;;;;;;;;;;;9.20;62.10;;;;;;5054033;28;19917;-75
2022/03/19 01:25:04;;;;;;;;;;;9.20;62.50;;;;;;5053979;28;19916;-75
2022/03/19 01:27:33;;;;;;;;;;;9.30;62.90;;;;;;5054198;28;19915;-76
2022/03/19 01:29:59;;;;;;;;;;;9.20;62.20;;;;;;5053765;28;20293;-75
2022/03/19 01:32:25;;;;;;;;;;;9.20;62.40;;;;;;5053950;28;19908;-77
2022/03/19 01:34:50;;;;;;;;;;;9.20;62.20;;;;;;5053869;28;19916;-75
2022/03/19 01:37:16;;;;;;;;;;;9.30;61.90;;;;;;5053735;28;19959;-77
2022/03/19 01:39:42;;;;;;;;;;;9.20;61.80;;;;;;5052374;28;19968;-76
2022/03/19 01:42:07;;;;;;;;;;;9.10;62.10;;;;;;5053654;28;19963;-76
2022/03/19 01:44:33;;;;;;;;;;;9.20;61.60;;;;;;5053615;28;19915;-76
2022/03/19 01:47:03;;;;;;;;;;;9.20;61.90;;;;;;5053389;28;19909;-74
2022/03/19 01:49:29;;;;;;;;;;;9.20;61.60;;;;;;5053551;28;19909;-75
2022/03/19 01:51:55;;;;;;;;;;;9.20;61.50;;;;;;5053734;28;19954;-76
2022/03/19 01:54:25;;;;;;;;;;;9.30;61.00;;;;;;5053513;28;19908;-75
2022/03/19 01:56:52;;;;;;;;;;;9.30;61.30;;;;;;5053757;28;19913;-76
2022/03/19 01:59:18;;;;;;;;;;;9.40;61.00;;;;;;5053721;28;19909;-76
2022/03/19 02:01:45;;;;;;;;;;;9.30;60.90;;;;;;5053540;28;19948;-76
2022/03/19 02:04:11;;;;;;;;;;;9.30;61.00;;;;;;5052170;28;19909;-75
2022/03/19 02:06:36;;;;;;;;;;;9.40;60.80;;;;;;5053396;28;19909;-75
2022/03/19 02:09:02;;;;;;;;;;;9.40;60.80;;;;;;5053428;28;20381;-76
2022/03/19 02:11:28;;;;;;;;;;;9.40;61.40;;;;;;5053351;28;20425;-75
2022/03/19 02:13:54;;;;;;;;;;;9.40;60.60;;;;;;5053376;28;19958;-76
2022/03/19 02:16:20;;;;;;;;;;;9.30;61.00;;;;;;5053358;28;19987;-76
2022/03/19 02:18:45;;;;;;;;;;;9.30;61.10;;;;;;5053531;28;20284;-75
2022/03/19 02:21:11;;;;;;;;;;;9.40;61.00;;;;;;5053460;28;19976;-75
2022/03/19 02:26:20;;;;;;;;;;;9.30;61.10;;;;;;5053309;28;19935;-77
2022/03/19 02:28:46;;;;;;;;;;;9.40;61.10;;;;;;5051941;28;19948;-76
2022/03/19 02:31:12;;;;;;;;;;;9.40;60.80;;;;;;5053427;28;19924;-75
2022/03/19 02:33:37;;;;;;;;;;;9.40;61.00;;;;;;5053194;28;20006;-75
2022/03/19 02:36:03;;;;;;;;;;;9.40;61.00;;;;;;5053132;28;19909;-75
2022/03/19 02:38:28;;;;;;;;;;;9.40;61.10;;;;;;5052969;28;20008;-75
2022/03/19 02:40:54;;;;;;;;;;;9.40;61.20;;;;;;5053128;28;19915;-75
2022/03/19 02:43:19;;;;;;;;;;;9.40;61.50;;;;;;5053102;28;19958;-76
2022/03/19 02:45:46;;;;;;;;;;;9.40;61.40;;;;;;5053143;28;20363;-76
2022/03/19 02:48:11;;;;;;;;;;;9.40;61.30;;;;;;5053091;28;19959;-75
2022/03/19 02:50:37;;;;;;;;;;;9.40;61.20;;;;;;5052332;28;19917;-75
2022/03/19 02:53:04;;;;;;;;;;;9.40;61.50;;;;;;5057061;28;19940;-75
2022/03/19 02:55:30;;;;;;;;;;;9.30;61.70;;;;;;5056820;28;19951;-76
2022/03/19 02:57:56;;;;;;;;;;;9.30;61.60;;;;;;5055420;28;19909;-76
2022/03/19 03:00:22;;;;;;;;;;;9.30;61.60;;;;;;5055359;28;19999;-76
2022/03/19 03:02:48;;;;;;;;;;;9.30;62.30;;;;;;5056632;28;19916;-76
2022/03/19 03:05:13;;;;;;;;;;;9.30;62.10;;;;;;5056676;28;19909;-74
2022/03/19 03:07:39;;;;;;;;;;;9.20;62.20;;;;;;5056570;28;19909;-75
2022/03/19 03:10:05;;;;;;;;;;;9.30;62.20;;;;;;5056629;28;20002;-75
2022/03/19 03:12:31;;;;;;;;;;;9.20;62.60;;;;;;5055100;28;20047;-75
2022/03/19 03:14:56;;;;;;;;;;;9.20;62.70;;;;;;5056561;28;19999;-75
2022/03/19 03:17:22;;;;;;;;;;;9.10;63.10;;;;;;5056371;28;20011;-76
2022/03/19 03:19:48;;;;;;;;;;;9.10;63.30;;;;;;5056287;28;19931;-75
2022/03/19 03:22:14;;;;;;;;;;;9.10;63.50;;;;;;5056192;28;19915;-76
2022/03/19 03:24:40;;;;;;;;;;;9.10;63.40;;;;;;5056172;28;19909;-75
2022/03/19 03:27:05;;;;;;;;;;;9.10;63.50;;;;;;5056204;28;19915;-75
2022/03/19 03:29:31;;;;;;;;;;;9.00;63.90;;;;;;5056113;28;19912;-76
2022/03/19 03:31:57;;;;;;;;;;;9.00;63.90;;;;;;5056014;28;20365;-76
2022/03/19 03:34:22;;;;;;;;;;;9.00;64.00;;;;;;5054731;28;19961;-76
2022/03/19 03:36:48;;;;;;;;;;;9.00;64.40;;;;;;5055942;28;19909;-76
2022/03/19 03:39:13;;;;;;;;;;;8.90;64.50;;;;;;5055496;28;19964;-74
2022/03/19 03:41:39;;;;;;;;;;;9.00;64.80;;;;;;5055852;28;20388;-76
2022/03/19 03:44:05;;;;;;;;;;;9.00;64.70;;;;;;5055872;28;19909;-76
2022/03/19 03:46:30;;;;;;;;;;;8.90;64.70;;;;;;5055984;28;20488;-75
2022/03/19 03:48:56;;;;;;;;;;;8.90;65.20;;;;;;5054457;28;19915;-75
2022/03/19 03:51:21;;;;;;;;;;;8.90;65.50;;;;;;5055737;28;19920;-76
2022/03/19 03:53:47;;;;;;;;;;;8.90;65.60;;;;;;5055561;28;19947;-76
2022/03/19 03:56:13;;;;;;;;;;;8.80;65.80;;;;;;5055564;28;19913;-76
2022/03/19 03:58:41;;;;;;;;;;;8.80;65.90;;;;;;5054278;28;19959;-76
2022/03/19 04:01:07;;;;;;;;;;;8.90;66.20;;;;;;5055522;28;19939;-75
2022/03/19 04:03:34;;;;;;;;;;;8.80;66.50;;;;;;5054564;28;20436;-76
2022/03/19 04:06:00;;;;;;;;;;;8.70;66.80;;;;;;5055416;28;19909;-76
2022/03/19 04:08:25;;;;;;;;;;;8.70;67.10;;;;;;5055740;28;19915;-76
2022/03/19 04:10:51;;;;;;;;;;;8.60;67.50;;;;;;5055211;28;19912;-76
2022/03/19 04:13:17;;;;;;;;;;;8.60;67.50;;;;;;5055285;28;19966;-76
2022/03/19 04:15:42;;;;;;;;;;;8.60;67.50;;;;;;5055389;28;19991;-76
2022/03/19 04:18:08;;;;;;;;;;;8.60;67.90;;;;;;5055286;28;19916;-75
2022/03/19 04:20:34;;;;;;;;;;;8.50;68.30;;;;;;5055157;28;19916;-75
2022/03/19 04:22:59;;;;;;;;;;;8.60;68.60;;;;;;5055289;28;19916;-76
2022/03/19 04:25:25;;;;;;;;;;;8.50;68.80;;;;;;5055373;28;19951;-75
2022/03/19 04:27:52;;;;;;;;;;;8.50;69.00;;;;;;5055035;28;19909;-75
2022/03/19 04:30:19;;;;;;;;;;;8.50;69.10;;;;;;5053645;28;19913;-76
2022/03/19 04:32:46;;;;;;;;;;;8.60;69.30;;;;;;5054931;28;19915;-76
2022/03/19 04:38:00;;;;;;;;;;;8.50;69.80;;;;;;5054686;28;20423;-76
2022/03/19 04:40:26;;;;;;;;;;;8.50;69.90;;;;;;5055001;28;19947;-74
2022/03/19 04:42:51;;;;;;;;;;;8.40;70.50;;;;;;5054799;28;19951;-75
2022/03/19 04:45:17;;;;;;;;;;;8.40;70.70;;;;;;5054675;28;20364;-76
2022/03/19 04:47:42;;;;;;;;;;;8.40;70.60;;;;;;5054783;28;19917;-77
2022/03/19 04:50:08;;;;;;;;;;;8.40;70.80;;;;;;5054577;28;20026;-76
2022/03/19 04:52:34;;;;;;;;;;;8.40;70.40;;;;;;5054525;28;19913;-75
2022/03/19 04:55:00;;;;;;;;;;;8.40;70.80;;;;;;5054424;28;19908;-74
2022/03/19 04:57:29;;;;;;;;;;;8.40;71.60;;;;;;5054440;28;19908;-75
2022/03/19 04:59:55;;;;;;;;;;;8.40;71.30;;;;;;5054513;28;19916;-74
2022/03/19 05:02:24;;;;;;;;;;;8.40;71.70;;;;;;5054393;28;19909;-76
2022/03/19 05:04:51;;;;;;;;;;;8.30;71.80;;;;;;5054294;28;19947;-75
2022/03/19 05:07:17;;;;;;;;;;;8.30;72.20;;;;;;5054593;28;19971;-75
2022/03/19 05:12:30;;;;;;;;;;;8.30;73.10;;;;;;5053949;28;19915;-76
2022/03/19 05:14:56;;;;;;;;;;;8.20;72.70;;;;;;5054146;28;19909;-76
2022/03/19 05:17:21;;;;;;;;;;;8.20;72.90;;;;;;5053827;28;20292;-75
2022/03/19 05:19:47;;;;;;;;;;;8.20;73.00;;;;;;5054034;28;19912;-76
2022/03/19 05:22:12;;;;;;;;;;;8.20;73.30;;;;;;5054025;28;19920;-77
2022/03/19 05:24:38;;;;;;;;;;;8.20;73.50;;;;;;5053961;28;20324;-76
2022/03/19 05:27:03;;;;;;;;;;;8.10;74.00;;;;;;5053760;28;19916;-75
2022/03/19 05:29:30;;;;;;;;;;;8.10;74.10;;;;;;5054126;28;19931;-76
2022/03/19 05:31:56;;;;;;;;;;;8.10;73.90;;;;;;5054060;28;19912;-75
2022/03/19 05:34:31;;;;;;;;;;;8.10;74.30;;;;;;5053898;28;20262;-75
2022/03/19 05:37:00;;;;;;;;;;;8.10;74.60;;;;;;5054034;28;20323;-76
2022/03/19 05:39:26;;;;;;;;;;;8.00;75.00;;;;;;5053455;28;19964;-76
2022/03/19 05:41:52;;;;;;;;;;;8.00;75.20;;;;;;5053848;28;20362;-75
2022/03/19 05:44:18;;;;;;;;;;;8.10;75.70;;;;;;5053654;28;20361;-75
2022/03/19 05:46:43;;;;;;;;;;;8.00;75.60;;;;;;5053707;28;20292;-76
2022/03/19 05:49:09;;;;;;;;;;;8.00;75.90;;;;;;5053584;28;19955;-76
2022/03/19 05:51:34;;;;;;;;;;;8.00;76.20;;;;;;5053505;28;19920;-76
2022/03/19 05:54:00;;;;;;;;;;;8.00;76.40;;;;;;5053670;28;19995;-75
2022/03/19 05:56:26;;;;;;;;;;;7.90;76.70;;;;;;5053654;28;19932;-76
2022/03/19 05:58:52;;;;;;;;;;;7.90;76.70;;;;;;5053462;28;19931;-75
2022/03/19 06:01:17;;;;;;;;;;;8.00;77.20;;;;;;5053491;28;19912;-76
2022/03/19 06:03:43;;;;;;;;;;;7.90;77.80;;;;;;5052173;28;19909;-76
2022/03/19 06:06:09;;;;;;;;;;;7.90;78.40;;;;;;5053647;28;19909;-75
2022/03/19 06:08:35;;;;;;;;;;;7.90;78.60;;;;;;5053576;28;19912;-75
2022/03/19 06:11:01;;;;;;;;;;;7.80;78.80;;;;;;5053380;28;20377;-75
2022/03/19 06:13:26;;;;;;;;;;;7.80;79.20;;;;;;5053769;28;19909;-76
2022/03/19 06:15:52;;;;;;;;;;;7.80;79.90;;;;;;5053451;28;19956;-74
2022/03/19 06:18:18;;;;;;;;;;;7.70;80.30;;;;;;5053395;28;19909;-76
2022/03/19 06:20:43;;;;;;;;;;;7.80;80.90;;;;;;5053358;28;19909;-75
2022/03/19 06:23:09;;;;;;;;;;;7.70;81.40;;;;;;5053495;28;19909;-77
2022/03/19 06:25:35;;;;;;;;;;;7.70;82.10;;;;;;5054034;28;19909;-75
2022/03/19 06:28:01;;;;;;;;;;;7.70;82.40;;;;;;5057348;28;19916;-76
2022/03/19 06:30:27;;;;;;;;;;;7.80;82.60;;;;;;5055878;28;19912;-76
2022/03/19 06:32:52;;;;;;;;;;;7.80;82.80;;;;;;5057523;28;20411;-76
2022/03/19 06:37:19;;;;;;;;;;;7.90;83.00;;;;;;5057365;28;19908;-74
2022/03/19 06:38:03;;;;;;;;;;;7.90;83.20;;;;;;5056486;28;19925;-75
2022/03/19 06:40:29;;;;;;;;;;;8.00;83.00;;;;;;5057070;28;19916;-75
2022/03/19 06:42:54;;;;;;;;;;;8.10;83.00;;;;;;5057272;28;19948;-75
2022/03/19 06:45:20;;;;;;;;;;;8.20;83.20;;;;;;5057026;28;19916;-76
2022/03/19 06:47:46;;;;;;;;;;;8.20;83.30;;;;;;5055622;28;19915;-76
2022/03/19 06:50:11;;;;;;;;;;;8.30;83.20;;;;;;5055510;28;20082;-76
2022/03/19 06:52:37;;;;;;;;;;;8.40;83.40;;;;;;5056829;28;20416;-75
2022/03/19 06:55:03;;;;;;;;;;;8.50;82.90;;;;;;5056763;28;19913;-75
2022/03/19 06:57:29;;;;;;;;;;;8.50;83.10;;;;;;5056737;28;19909;-75
2022/03/19 06:59:54;;;;;;;;;;;8.50;83.00;;;;;;5056644;28;19916;-76
2022/03/19 07:02:20;;;;;;;;;;;8.70;83.10;;;;;;5056829;28;20485;-76
2022/03/19 07:04:46;;;;;;;;;;;8.80;83.00;;;;;;5056584;28;19909;-76
2022/03/19 07:07:11;;;;;;;;;;;9.00;82.80;;;;;;5055201;28;20023;-75
2022/03/19 07:09:37;;;;;;;;;;;9.00;83.00;;;;;;5056446;28;19909;-77
2022/03/19 07:12:04;;;;;;;;;;;9.20;82.20;;;;;;5056677;28;20014;-76
2022/03/19 07:14:29;;;;;;;;;;;9.20;82.60;;;;;;5056773;28;19916;-76
2022/03/19 07:16:56;;;;;;;;;;;9.30;82.80;;;;;;5056366;28;19913;-75
2022/03/19 07:19:21;;;;;;;;;;;9.30;82.60;;;;;;5056352;28;19909;-74
2022/03/19 07:21:47;;;;;;;;;;;9.50;82.40;;;;;;5056305;28;19915;-75
2022/03/19 07:24:12;;;;;;;;;;;9.60;82.00;;;;;;5054925;28;19920;-76
2022/03/19 07:26:38;;;;;;;;;;;9.80;81.70;;;;;;5056412;28;19954;-76
2022/03/19 07:29:04;;;;;;;;;;;10.00;81.10;;;;;;5056138;28;20331;-76
2022/03/19 07:31:29;;;;;;;;;;;10.10;80.30;;;;;;5071385;28;19912;-76
2022/03/19 07:33:55;;;;;;;;;;;10.20;79.90;;;;;;5054744;28;19909;-76
2022/03/19 07:36:20;;;;;;;;;;;10.30;80.40;;;;;;5055951;28;19916;-75
2022/03/19 07:38:46;;;;;;;;;;;10.50;79.70;;;;;;5055812;28;19944;-76
2022/03/19 07:43:55;;;;;;;;;;;10.70;78.90;;;;;;5055729;28;20003;-75
2022/03/19 07:46:22;;;;;;;;;;;10.90;77.90;;;;;;5055782;28;20388;-76
2022/03/19 07:48:48;;;;;;;;;;;11.10;78.00;;;;;;5054469;28;19995;-76
2022/03/19 07:51:13;;;;;;;;;;;11.20;77.00;;;;;;5055641;28;20020;-76
2022/03/19 07:53:39;;;;;;;;;;;11.30;76.90;;;;;;5055595;28;20320;-75
2022/03/19 07:56:06;;;;;;;;;;;11.40;76.30;;;;;;5055380;28;19909;-76
2022/03/19 07:58:31;;;;;;;;;;;11.50;76.10;;;;;;5055698;28;20436;-76
2022/03/19 08:00:57;;;;;;;;;;;11.40;76.70;;;;;;5055559;28;19951;-75
2022/03/19 08:03:22;;;;;;;;;;;11.30;76.80;;;;;;5055476;28;19919;-76
2022/03/19 08:05:48;;;;;;;;;;;11.30;77.40;;;;;;5055567;28;19916;-77
2022/03/19 08:08:14;;;;;;;;;;;11.50;77.20;;;;;;5055665;28;19909;-76
2022/03/19 08:10:40;;;;;;;;;;;11.70;76.70;;;;;;5055379;28;20316;-75
2022/03/19 08:13:06;;;;;;;;;;;11.80;75.50;;;;;;5055318;28;20423;-75
2022/03/19 08:15:32;;;;;;;;;;;11.90;75.40;;;;;;5054006;28;20280;-75
2022/03/19 08:18:01;;;;;;;;;;;12.00;75.10;;;;;;5055550;28;20400;-75
2022/03/19 08:20:27;;;;;;;;;;;12.00;74.90;;;;;;5055221;28;19909;-76
2022/03/19 08:22:53;;;;;;;;;;;12.20;75.30;;;;;;5053872;28;20003;-76
2022/03/19 08:25:18;;;;;;;;;;;12.30;74.10;;;;;;5055311;28;19937;-77
2022/03/19 08:27:45;;;;;;;;;;;12.10;75.30;;;;;;5055220;28;19991;-76
2022/03/19 08:30:11;;;;;;;;;;;12.10;75.30;;;;;;5055036;28;19958;-76
2022/03/19 08:32:37;;;;;;;;;;;12.30;74.70;;;;;;5054711;28;19909;-75
2022/03/19 08:35:02;;;;;;;;;;;12.40;75.70;;;;;;5054945;28;20401;-77
2022/03/19 08:37:28;;;;;;;;;;;12.70;74.90;;;;;;5054850;28;19958;-76
2022/03/19 08:42:38;;;;;;;;;;;13.00;72.50;;;;;;5054869;28;20383;-76
2022/03/19 08:45:04;;;;;;;;;;;13.10;73.30;;;;;;5054707;28;19909;-78
2022/03/19 08:47:30;;;;;;;;;;;13.20;73.70;;;;;;5054829;28;19971;-76
2022/03/19 08:49:56;;;;;;;;;;;13.50;72.90;;;;;;5052737;28;19913;-76
2022/03/19 08:52:22;;;;;;;;;;;13.60;71.70;;;;;;5054857;28;19954;-76
2022/03/19 08:54:47;;;;;;;;;;;13.60;71.50;;;;;;5054404;28;19908;-77
2022/03/19 08:57:14;;;;;;;;;;;13.80;70.80;;;;;;5054503;28;19913;-78
2022/03/19 08:59:40;;;;;;;;;;;14.10;70.50;;;;;;5053074;28;19948;-75
2022/03/19 09:02:05;;;;;;;;;;;14.40;70.20;;;;;;5054290;28;19959;-76
2022/03/19 09:04:32;;;;;;;;;;;14.60;68.20;;;;;;5054633;28;19948;-78
2022/03/19 09:06:57;;;;;;;;;;;14.50;68.90;;;;;;5054410;28;19909;-75
2022/03/19 09:09:23;;;;;;;;;;;14.60;70.20;;;;;;5054300;28;19920;-76
2022/03/19 09:11:49;;;;;;;;;;;14.80;68.80;;;;;;5054146;28;20000;-77
2022/03/19 09:14:16;;;;;;;;;;;15.10;68.80;;;;;;5053775;28;20372;-77
2022/03/19 09:16:41;;;;;;;;;;;15.10;68.90;;;;;;5053914;28;19908;-76
2022/03/19 09:19:07;;;;;;;;;;;14.80;67.80;;;;;;5052775;28;19909;-77
2022/03/19 09:21:33;;;;;;;;;;;14.70;67.70;;;;;;5054050;28;19913;-76
2022/03/19 09:23:58;;;;;;;;;;;15.30;68.00;;;;;;5053991;28;20025;-77
2022/03/19 09:26:24;;;;;;;;;;;15.50;66.50;;;;;;5054319;28;19909;-77
2022/03/19 09:28:52;;;;;;;;;;;15.50;66.20;;;;;;5053673;28;19908;-76
2022/03/19 09:31:18;;;;;;;;;;;15.80;66.30;;;;;;5053653;28;19935;-77
2022/03/19 09:33:44;;;;;;;;;;;16.30;65.60;;;;;;5027208;28;19924;-76
2022/03/19 09:36:09;;;;;;;;;;;16.50;64.80;;;;;;5034030;28;19916;-76
2022/03/19 09:38:35;;;;;;;;;;;16.50;63.80;;;;;;5033707;28;19921;-76
2022/03/19 09:41:01;;;;;;;;;;;16.60;63.30;;;;;;5033852;28;19963;-75
2022/03/19 09:43:27;;;;;;;;;;;16.50;65.50;;;;;;5015957;28;19948;-77
2022/03/19 09:45:53;;;;;;;;;;;17.20;64.10;;;;;;5033958;28;20361;-76
2022/03/19 09:48:19;;;;;;;;;;;17.70;61.80;;;;;;5034171;28;19916;-77
2022/03/19 09:50:45;;;;;;;;;;;17.90;61.20;;;;;;5033791;28;19917;-77
2022/03/19 09:53:11;;;;;;;;;;;18.00;61.20;;;;;;5032332;28;20355;-77
2022/03/19 09:55:38;;;;;;;;;;;18.20;60.00;;;;;;5032473;28;19909;-76
2022/03/19 09:58:04;;;;;;;;;;;18.30;59.40;;;;;;5033757;28;19959;-76
2022/03/19 10:00:30;;;;;;;;;;;19.20;59.30;;;;;;5031547;28;19910;-75
2022/03/19 10:03:00;;;;;;;;;;;19.60;57.50;;;;;;5033926;28;19973;-77
2022/03/19 10:10:57;;;;;;;;;;;19.20;57.70;;;;;;5033439;28;20301;-76
2022/03/19 10:13:24;;;;;;;;;;;19.00;57.40;;;;;;5033438;28;19913;-77
2022/03/19 10:15:50;;;;;;;;;;;19.70;58.00;;;;;;5033880;28;19943;-77
2022/03/19 10:18:15;;;;;;;;;;;19.80;57.00;;;;;;5032644;28;19913;-76
2022/03/19 10:20:42;;;;;;;;;;;19.40;57.90;;;;;;5033839;28;19909;-77
2022/03/19 10:23:07;;;;;;;;;;;19.10;58.50;;;;;;5032567;28;20428;-77
2022/03/19 10:25:33;;;;;;;;;;;19.90;57.50;;;;;;5053210;28;19913;-76
2022/03/19 10:28:13;;;;;;;;;;;19.50;57.30;;;;;;5053582;28;19909;-76
2022/03/19 10:30:40;;;;;;;;;;;19.40;57.90;;;;;;5053284;28;20372;-78
2022/03/19 10:33:09;;;;;;;;;;;18.80;59.30;;;;;;5053238;28;19967;-76
2022/03/19 10:35:35;;;;;;;;;;;18.60;58.90;;;;;;5031850;28;19925;-77
2022/03/19 10:38:16;;;;;;;;;;;18.30;59.70;;;;;;5033304;28;20008;-77
2022/03/19 10:40:44;;;;;;;;;;;18.10;60.00;;;;;;5044929;28;19916;-77
2022/03/19 10:43:10;;;;;;;;;;;18.80;59.30;;;;;;5053409;28;19915;-75
2022/03/19 10:45:43;;;;;;;;;;;19.60;57.70;;;;;;5051887;28;19912;-77
2022/03/19 10:48:11;;;;;;;;;;;19.40;57.50;;;;;;5053387;28;19909;-76
2022/03/19 10:50:38;;;;;;;;;;;19.40;58.60;;;;;;5053206;28;19948;-78
2022/03/19 10:53:05;;;;;;;;;;;20.00;57.80;;;;;;5051946;28;19909;-75
2022/03/19 10:55:30;;;;;;;;;;;19.30;57.60;;;;;;5053054;28;19908;-77
2022/03/19 10:57:56;;;;;;;;;;;19.30;57.70;;;;;;5053176;28;20238;-78
2022/03/19 11:00:22;;;;;;;;;;;19.70;58.20;;;;;;5053054;28;19915;-78
2022/03/19 11:02:49;;;;;;;;;;;20.30;57.00;;;;;;5048546;28;19917;-79
2022/03/19 11:05:17;;;;;;;;;;;21.20;56.50;;;;;;5031792;28;19909;-77
2022/03/19 11:07:43;;;;;;;;;;;21.20;56.10;;;;;;5032961;28;19976;-77
2022/03/19 11:10:10;;;;;;;;;;;21.40;56.00;;;;;;5032949;28;20050;-79
2022/03/19 11:12:40;;;;;;;;;;;21.80;55.00;;;;;;5035076;28;20058;-76
2022/03/19 11:15:07;;;;;;;;;;;21.60;54.30;;;;;;5051877;28;20373;-77
2022/03/19 11:17:36;;;;;;;;;;;21.90;54.30;;;;;;5056421;28;20273;-77
2022/03/19 11:20:04;;;;;;;;;;;21.30;54.70;;;;;;5055012;28;19915;-77
2022/03/19 11:22:39;;;;;;;;;;;20.90;55.30;;;;;;5056358;28;20373;-79
2022/03/19 11:25:23;;;;;;;;;;;20.80;56.70;;;;;;5056690;28;19963;-77
2022/03/19 11:27:50;;;;;;;;;;;21.30;55.40;;;;;;5056289;28;20042;-78
2022/03/19 11:30:16;;;;;;;;;;;20.80;55.90;;;;;;5056099;28;19987;-78
2022/03/19 11:32:58;;;;;;;;;;;21.40;55.90;;;;;;5056134;28;19909;-77
2022/03/19 11:35:24;;;;;;;;;;;22.90;55.40;;;;;;5056398;28;19913;-79
2022/03/19 11:38:03;;;;;;;;;;;22.90;53.60;;;;;;5055812;28;19970;-78
2022/03/19 11:40:32;;;;;;;;;;;22.40;54.10;;;;;;5056006;28;20008;-79
2022/03/19 11:43:01;;;;;;;;;;;23.10;53.20;;;;;;5056172;28;19909;-77
2022/03/19 11:45:27;;;;;;;;;;;23.80;52.00;;;;;;5055989;28;19909;-77
2022/03/19 11:47:52;;;;;;;;;;;23.40;51.90;;;;;;5055916;28;19915;-77
2022/03/19 11:50:23;;;;;;;;;;;22.10;53.50;;;;;;5055568;28;19916;-78
2022/03/19 11:52:49;;;;;;;;;;;21.40;55.20;;;;;;5053214;28;20103;-78
2022/03/19 11:55:18;;;;;;;;;;;20.10;56.90;;;;;;5055633;28;20432;-80
2022/03/19 11:57:46;;;;;;;;;;;19.30;59.10;;;;;;5055460;28;19913;-77
2022/03/19 12:00:19;;;;;;;;;;;19.00;60.60;;;;;;5055627;28;20060;-78
2022/03/19 12:03:03;;;;;;;;;;;19.50;59.70;;;;;;5055562;28;19951;-78
2022/03/19 12:05:29;;;;;;;;;;;19.40;59.90;;;;;;5055394;28;19939;-77
2022/03/19 12:07:57;;;;;;;;;;;18.80;61.80;;;;;;5053602;28;20003;-79
2022/03/19 12:10:27;;;;;;;;;;;19.30;60.00;;;;;;5053456;28;19958;-79
2022/03/19 12:12:53;;;;;;;;;;;19.60;60.50;;;;;;5054927;28;19916;-78
2022/03/19 12:15:31;;;;;;;;;;;19.30;59.80;;;;;;5054973;28;19909;-78
2022/03/19 12:18:15;;;;;;;;;;;19.50;60.70;;;;;;5054902;28;20372;-77
2022/03/19 12:20:43;;;;;;;;;;;20.00;59.10;;;;;;5055005;28;19909;-82
2022/03/19 12:23:11;;;;;;;;;;;20.70;58.00;;;;;;5054861;28;19913;-79
2022/03/19 12:25:41;;;;;;;;;;;21.70;57.70;;;;;;5055072;28;20003;-81
2022/03/19 12:28:08;;;;;;;;;;;23.80;54.40;;;;;;5055070;28;19951;-78
2022/03/19 12:30:35;;;;;;;;;;;23.80;53.70;;;;;;5053689;28;19923;-81
2022/03/19 12:33:00;;;;;;;;;;;24.10;55.10;;;;;;5054987;28;19912;-79
2022/03/19 12:35:36;;;;;;;;;;;24.90;51.90;;;;;;5054979;28;19957;-78
2022/03/19 12:38:02;;;;;;;;;;;25.30;51.80;;;;;;5055015;28;20015;-79
2022/03/19 12:41:23;;;;;;;;;;;22.90;53.60;;;;;;5055014;28;19994;-81
2022/03/19 12:43:14;;;;;;;;;;;20.70;56.50;;;;;;5054544;28;20004;-78
2022/03/19 12:45:42;;;;;;;;;;;19.70;59.00;;;;;;5054758;28;19995;-81
2022/03/19 12:48:16;;;;;;;;;;;19.60;59.20;;;;;;5054717;28;20284;-81
2022/03/19 12:50:51;;;;;;;;;;;20.00;59.50;;;;;;5054933;28;19936;-78
2022/03/19 12:53:28;;;;;;;;;;;19.40;61.80;;;;;;5054742;28;19916;-79
2022/03/19 12:56:09;;;;;;;;;;;19.30;60.60;;;;;;5054707;28;20277;-79
2022/03/19 12:58:38;;;;;;;;;;;18.80;62.50;;;;;;5054716;28;19931;-81
2022/03/19 13:01:07;;;;;;;;;;;18.00;65.20;;;;;;5054449;28;20280;-80
2022/03/19 13:03:33;;;;;;;;;;;18.60;63.30;;;;;;5054423;28;20051;-80
2022/03/19 13:05:59;;;;;;;;;;;20.40;61.30;;;;;;5054360;28;19940;-78
2022/03/19 13:08:24;;;;;;;;;;;22.20;58.00;;;;;;5054511;28;19908;-78
2022/03/19 13:10:52;;;;;;;;;;;23.00;56.70;;;;;;5054208;28;19913;-80
2022/03/19 13:13:18;;;;;;;;;;;22.50;56.20;;;;;;5054265;28;20438;-80
2022/03/19 13:15:50;;;;;;;;;;;23.30;55.90;;;;;;5054202;28;19916;-80
2022/03/19 13:18:29;;;;;;;;;;;24.30;53.60;;;;;;5054132;28;19913;-81
2022/03/19 13:21:21;;;;;;;;;;;23.50;54.20;;;;;;5054185;28;19908;-80
2022/03/19 13:23:46;;;;;;;;;;;24.70;53.90;;;;;;5051843;28;19909;-82
2022/03/19 13:26:15;;;;;;;;;;;25.50;52.10;;;;;;5054042;28;19916;-78
2022/03/19 13:28:59;;;;;;;;;;;25.80;52.30;;;;;;5052731;28;19916;-81
2022/03/19 13:31:25;;;;;;;;;;;25.90;51.60;;;;;;5052573;28;20007;-79
2022/03/19 13:33:51;;;;;;;;;;;26.30;51.30;;;;;;5053923;28;19909;-82
2022/03/19 13:36:18;;;;;;;;;;;26.40;50.30;;;;;;5053764;28;20280;-79
2022/03/19 13:38:43;;;;;;;;;;;27.40;49.60;;;;;;5052338;28;19978;-81
2022/03/19 13:41:18;;;;;;;;;;;27.40;48.60;;;;;;5053891;28;19909;-80
2022/03/19 13:43:44;;;;;;;;;;;26.80;50.80;;;;;;5053801;28;20265;-80
2022/03/19 13:46:12;;;;;;;;;;;26.70;49.60;;;;;;5052984;28;20186;-79
2022/03/19 13:48:37;;;;;;;;;;;26.40;49.70;;;;;;5053819;28;20004;-81
2022/03/19 13:51:03;;;;;;;;;;;25.50;50.90;;;;;;5053636;28;19924;-81
2022/03/19 13:53:50;;;;;;;;;;;24.40;52.00;;;;;;5053557;28;20284;-79
2022/03/19 13:56:16;;;;;;;;;;;24.10;53.80;;;;;;5053988;28;20376;-79
2022/03/19 13:59:01;;;;;;;;;;;24.60;53.40;;;;;;5053643;28;19959;-79
2022/03/19 14:01:33;;;;;;;;;;;25.20;51.10;;;;;;5053610;28;19932;-82
2022/03/19 14:03:59;;;;;;;;;;;26.10;51.60;;;;;;5053566;28;20323;-79
2022/03/19 14:06:34;;;;;;;;;;;25.80;52.00;;;;;;5053554;28;19912;-82
2022/03/19 14:09:00;;;;;;;;;;;24.90;51.90;;;;;;5053559;28;19916;-80
2022/03/19 14:11:36;;;;;;;;;;;25.50;52.10;;;;;;5053874;28;19913;-78
2022/03/19 14:14:01;;;;;;;;;;;25.60;51.50;;;;;;5053694;28;20319;-80
2022/03/19 14:16:27;;;;;;;;;;;26.10;51.00;;;;;;5053435;28;19909;-79
2022/03/19 14:18:57;;;;;;;;;;;24.90;52.60;;;;;;5053651;28;19916;-81
2022/03/19 14:21:23;;;;;;;;;;;25.00;52.60;;;;;;5052131;28;19947;-82
2022/03/19 14:23:48;;;;;;;;;;;24.50;52.50;;;;;;5053442;28;19916;-80
2022/03/19 14:26:15;;;;;;;;;;;24.80;52.80;;;;;;5053489;28;19916;-82
2022/03/19 14:28:41;;;;;;;;;;;24.40;53.30;;;;;;5051975;28;20384;-80
2022/03/19 14:31:07;;;;;;;;;;;24.50;54.50;;;;;;5053254;28;19920;-80
2022/03/19 14:33:33;;;;;;;;;;;23.70;54.00;;;;;;5053386;28;20291;-81
2022/03/19 14:36:01;;;;;;;;;;;23.20;55.60;;;;;;5053268;28;19916;-81
2022/03/19 14:38:34;;;;;;;;;;;23.40;54.40;;;;;;5053062;28;19921;-83
2022/03/19 14:41:07;;;;;;;;;;;23.30;55.00;;;;;;5053189;28;19913;-80
2022/03/19 14:43:33;;;;;;;;;;;23.00;55.40;;;;;;5053351;28;19951;-79